createdAt,value
2018-04-10T00:02:07.496Z,33.40
2018-04-10T00:04:35.371Z,32.90
2018-04-10T00:07:02.849Z,32.33
2018-04-10T00:09:30.304Z,33.77
2018-04-10T00:11:58.443Z,31.23
2018-04-10T00:14:26.684Z,32.70
2018-04-10T00:16:54.137Z,31.53
2018-04-10T00:19:21.585Z,32.37
2018-04-10T00:21:49.791Z,32.70
2018-04-10T00:24:17.640Z,32.93
2018-04-10T00:26:45.502Z,32.30
2018-04-10T00:29:13.749Z,33.97
2018-04-10T00:31:41.633Z,34.80
2018-04-10T00:34:09.850Z,33.33
2018-04-10T00:36:37.681Z,34.03
2018-04-10T00:39:05.556Z,33.13
2018-04-10T00:41:33.788Z,33.10
2018-04-10T00:44:01.998Z,34.47
2018-04-10T00:46:29.848Z,35.33
2018-04-10T00:48:58.089Z,33.87
2018-04-10T00:51:25.566Z,32.00
2018-04-10T00:53:53.023Z,32.93
2018-04-10T00:56:20.873Z,35.60
2018-04-10T00:58:48.324Z,34.40
2018-04-10T01:01:16.545Z,34.70
2018-04-10T01:03:44.012Z,34.30
2018-04-10T01:06:11.449Z,33.20
2018-04-10T01:08:39.294Z,34.93
2018-04-10T01:11:06.747Z,33.73
2018-04-10T01:13:34.201Z,33.90
2018-04-10T01:16:02.418Z,33.60
2018-04-10T01:18:29.860Z,33.90
2018-04-10T01:20:58.067Z,34.47
2018-04-10T01:23:25.519Z,33.13
2018-04-10T01:25:52.952Z,30.77
2018-04-10T01:28:20.412Z,32.63
2018-04-10T01:30:47.871Z,33.70
2018-04-10T01:33:16.109Z,32.80
2018-04-10T01:35:43.684Z,33.90
2018-04-10T01:38:11.134Z,33.40
2018-04-10T01:40:39.354Z,35.33
2018-04-10T01:43:06.816Z,33.80
2018-04-10T01:45:34.358Z,35.50
2018-04-10T01:48:02.073Z,34.07
2018-04-10T01:50:30.415Z,33.93
2018-04-10T01:52:58.278Z,35.13
2018-04-10T01:55:26.138Z,34.27
2018-04-10T01:57:55.035Z,32.00
2018-04-10T02:00:23.027Z,33.53
2018-04-10T02:02:50.650Z,33.20
2018-04-10T02:05:18.961Z,33.50
2018-04-10T02:07:46.397Z,33.67
2018-04-10T02:10:13.849Z,32.17
2018-04-10T02:18:12.984Z,31.83
2018-04-10T02:20:41.780Z,31.97
2018-04-10T02:23:09.233Z,30.87
2018-04-10T02:25:36.719Z,33.43
2018-04-10T02:28:04.198Z,30.93
2018-04-10T02:30:31.671Z,33.33
2018-04-10T02:32:59.110Z,30.30
2018-04-10T02:35:26.997Z,33.13
2018-04-10T02:37:55.466Z,33.50
2018-04-10T02:40:23.152Z,31.30
2018-04-10T02:42:50.629Z,30.70
2018-04-10T02:45:25.332Z,30.83
2018-04-10T02:47:53.729Z,31.07
2018-04-10T02:50:21.877Z,33.87
2018-04-10T02:52:49.694Z,32.97
2018-04-10T02:55:17.294Z,31.70
2018-04-10T02:57:47.544Z,29.87
2018-04-10T03:00:15.510Z,31.37
2018-04-10T03:02:43.117Z,31.30
2018-04-10T03:05:11.320Z,32.00
2018-04-10T03:07:39.614Z,31.00
2018-04-10T03:10:07.077Z,29.43
2018-04-10T03:12:34.751Z,29.60
2018-04-10T03:15:02.598Z,30.33
2018-04-10T03:17:30.061Z,29.50
2018-04-10T03:19:57.513Z,29.90
2018-04-10T03:22:24.980Z,28.73
2018-04-10T03:24:52.849Z,30.33
2018-04-10T03:27:20.292Z,30.20
2018-04-10T03:29:48.149Z,27.57
2018-04-10T03:32:15.609Z,30.13
2018-04-10T03:34:43.065Z,29.23
2018-04-10T03:37:10.532Z,29.83
2018-04-10T03:39:37.965Z,30.07
2018-04-10T03:42:08.271Z,29.57
2018-04-10T03:44:35.768Z,30.23
2018-04-10T03:47:03.627Z,29.90
2018-04-10T03:49:31.089Z,30.77
2018-04-10T03:51:58.556Z,30.40
2018-04-10T03:54:26.051Z,30.60
2018-04-10T03:56:54.282Z,30.77
2018-04-10T03:59:21.748Z,31.07
2018-04-10T04:01:49.630Z,30.17
2018-04-10T04:04:17.104Z,30.03
2018-04-10T04:06:44.962Z,30.47
2018-04-10T04:09:12.817Z,29.40
2018-04-10T04:11:40.430Z,31.33
2018-04-10T04:14:07.893Z,31.77
2018-04-10T04:16:47.222Z,29.87
2018-04-10T04:19:26.546Z,30.40
2018-04-10T04:22:05.998Z,28.53
2018-04-10T04:24:33.457Z,31.37
2018-04-10T04:27:01.685Z,28.80
2018-04-10T04:29:29.524Z,29.13
2018-04-10T04:31:58.485Z,29.00
2018-04-10T04:34:26.696Z,29.67
2018-04-10T04:36:55.673Z,27.47
2018-04-10T04:39:23.260Z,28.70
2018-04-10T04:41:51.503Z,26.10
2018-04-10T04:44:18.972Z,25.37
2018-04-10T04:46:46.513Z,24.73
2018-04-10T04:49:14.743Z,24.53
2018-04-10T04:51:43.358Z,24.83
2018-04-10T04:54:10.812Z,25.03
2018-04-10T04:56:38.272Z,26.87
2018-04-10T04:59:06.137Z,28.50
2018-04-10T05:01:33.596Z,29.90
2018-04-10T05:04:01.085Z,30.33
2018-04-10T05:06:28.532Z,30.83
2018-04-10T05:08:55.999Z,25.43
2018-04-10T05:11:23.692Z,26.50
2018-04-10T05:13:51.339Z,28.00
2018-04-10T05:18:53.081Z,26.93
2018-04-10T05:21:20.529Z,27.70
2018-04-10T05:23:48.010Z,28.20
2018-04-10T05:26:15.489Z,28.77
2018-04-10T05:28:43.379Z,27.53
2018-04-10T05:31:11.600Z,28.83
2018-04-10T05:33:39.156Z,28.87
2018-04-10T05:36:07.028Z,30.30
2018-04-10T05:38:35.989Z,30.50
2018-04-10T05:41:03.510Z,28.57
2018-04-10T05:43:31.346Z,29.20
2018-04-10T05:46:00.215Z,27.80
2018-04-10T05:48:28.446Z,28.87
2018-04-10T05:50:57.456Z,27.50
2018-04-10T05:53:25.381Z,28.07
2018-04-10T05:55:53.247Z,28.73
2018-04-10T05:58:21.101Z,25.67
2018-04-10T06:00:49.318Z,25.70
2018-04-10T06:03:16.784Z,25.20
2018-04-10T06:05:44.322Z,24.70
2018-04-10T06:08:11.793Z,23.00
2018-04-10T06:10:39.626Z,23.43
2018-04-10T06:13:07.142Z,24.60
2018-04-10T06:15:35.619Z,24.60
2018-04-10T06:18:03.166Z,24.43
2018-04-10T06:20:31.970Z,24.80
2018-04-10T06:22:59.419Z,23.87
2018-04-10T06:25:26.890Z,23.40
2018-04-10T06:27:54.440Z,22.60
2018-04-10T06:30:21.899Z,21.33
2018-04-10T06:32:49.389Z,22.30
2018-04-10T06:35:16.870Z,20.43
2018-04-10T06:37:45.081Z,18.90
2018-04-10T06:40:12.582Z,19.40
2018-04-10T06:42:40.162Z,19.80
2018-04-10T06:45:07.724Z,19.70
2018-04-10T06:47:35.203Z,18.87
2018-04-10T06:50:02.669Z,17.60
2018-04-10T06:52:30.127Z,19.57
2018-04-10T06:54:57.585Z,18.60
2018-04-10T06:57:25.793Z,18.53
2018-04-10T06:59:54.035Z,18.07
2018-04-10T07:02:21.526Z,17.17
2018-04-10T07:04:49.766Z,16.77
2018-04-10T07:07:17.239Z,16.70
2018-04-10T07:09:45.173Z,14.47
2018-04-10T07:12:12.657Z,14.30
2018-04-10T07:14:40.117Z,14.13
2018-04-10T07:17:08.014Z,14.90
2018-04-10T07:19:35.464Z,13.67
2018-04-10T07:22:03.687Z,14.00
2018-04-10T07:24:31.160Z,13.40
2018-04-10T07:26:58.606Z,13.73
2018-04-10T07:29:26.047Z,14.30
2018-04-10T07:31:53.518Z,13.87
2018-04-10T07:34:21.031Z,14.80
2018-04-10T07:36:49.059Z,13.70
2018-04-10T07:39:17.307Z,11.90
2018-04-10T07:41:45.238Z,13.23
2018-04-10T07:44:12.685Z,12.90
2018-04-10T07:46:40.953Z,12.30
2018-04-10T07:49:08.417Z,11.70
2018-04-10T07:51:35.869Z,11.50
2018-04-10T07:54:04.111Z,11.53
2018-04-10T07:56:31.579Z,11.90
2018-04-10T07:58:59.789Z,12.97
2018-04-10T08:01:27.253Z,11.50
2018-04-10T08:03:54.714Z,12.23
2018-04-10T08:06:22.157Z,12.23
2018-04-10T08:08:50.429Z,11.07
2018-04-10T08:11:17.870Z,10.63
2018-04-10T08:13:45.745Z,10.63
2018-04-10T08:16:13.616Z,10.00
2018-04-10T08:18:41.078Z,9.73
2018-04-10T08:21:08.526Z,10.03
2018-04-10T08:23:35.982Z,8.63
2018-04-10T08:26:03.427Z,8.40
2018-04-10T08:28:31.697Z,6.70
2018-04-10T08:30:59.152Z,7.10
2018-04-10T08:33:26.614Z,6.63
2018-04-10T08:35:54.575Z,6.00
2018-04-10T08:38:22.049Z,6.77
2018-04-10T08:40:49.492Z,7.10
2018-04-10T08:43:17.698Z,7.53
2018-04-10T08:45:46.254Z,7.53
2018-04-10T08:48:14.502Z,5.90
2018-04-10T08:50:42.750Z,6.40
2018-04-10T08:53:10.209Z,6.40
2018-04-10T08:55:37.869Z,7.17
2018-04-10T08:58:06.311Z,7.73
2018-04-10T09:00:34.214Z,7.23
2018-04-10T09:03:01.686Z,7.83
2018-04-10T09:05:29.189Z,7.27
2018-04-10T09:07:56.657Z,7.07
2018-04-10T09:10:24.125Z,7.80
2018-04-10T09:12:51.680Z,6.93
2018-04-10T09:15:19.224Z,6.57
2018-04-10T09:17:46.666Z,6.63
2018-04-10T09:20:14.494Z,6.60
2018-04-10T09:22:42.713Z,7.40
2018-04-10T09:25:10.178Z,6.27
2018-04-10T09:27:38.048Z,5.47
2018-04-10T09:30:05.504Z,4.80
2018-04-10T09:32:33.734Z,5.30
2018-04-10T09:35:01.191Z,5.50
2018-04-10T09:37:28.742Z,5.43
2018-04-10T09:39:56.201Z,5.60
2018-04-10T09:42:24.036Z,5.33
2018-04-10T09:44:51.520Z,4.97
2018-04-10T09:47:20.874Z,4.80
2018-04-10T09:49:48.861Z,4.90
2018-04-10T09:52:16.698Z,3.93
2018-04-10T09:54:44.923Z,3.53
2018-04-10T09:57:12.361Z,3.90
2018-04-10T09:59:39.812Z,4.13
2018-04-10T10:02:08.082Z,2.77
2018-04-10T10:04:35.516Z,3.40
2018-04-10T10:07:02.968Z,2.87
2018-04-10T10:09:30.417Z,2.90
2018-04-10T10:11:58.631Z,2.90
2018-04-10T10:14:26.340Z,3.13
2018-04-10T10:16:54.193Z,2.83
2018-04-10T10:19:21.693Z,2.60
2018-04-10T10:21:49.139Z,3.00
2018-04-10T10:24:17.345Z,2.80
2018-04-10T10:26:45.165Z,2.97
2018-04-10T10:29:12.706Z,2.93
2018-04-10T10:31:40.920Z,2.80
2018-04-10T10:34:08.381Z,3.20
2018-04-10T10:36:35.850Z,2.43
2018-04-10T10:39:04.215Z,2.83
2018-04-10T10:41:31.735Z,2.70
2018-04-10T10:43:59.222Z,2.90
2018-04-10T10:46:26.686Z,2.97
2018-04-10T10:48:54.144Z,3.10
2018-04-10T10:51:21.619Z,3.70
2018-04-10T10:53:49.077Z,3.20
2018-04-10T10:56:17.361Z,3.13
2018-04-10T10:58:45.264Z,3.00
2018-04-10T11:01:12.748Z,2.73
2018-04-10T11:03:40.297Z,3.57
2018-04-10T11:06:07.751Z,2.73
2018-04-10T11:08:35.193Z,2.90
2018-04-10T11:11:02.655Z,2.80
2018-04-10T11:13:30.877Z,3.77
2018-04-10T11:15:58.322Z,2.73
2018-04-10T11:18:25.758Z,2.80
2018-04-10T11:20:54.060Z,2.43
2018-04-10T11:23:22.290Z,2.53
2018-04-10T11:25:50.130Z,3.10
2018-04-10T11:28:17.981Z,2.80
2018-04-10T11:30:45.441Z,3.00
2018-04-10T11:33:13.659Z,3.20
2018-04-10T11:35:41.155Z,3.60
2018-04-10T11:38:08.602Z,2.70
2018-04-10T11:40:36.092Z,3.07
2018-04-10T11:43:03.558Z,2.80
2018-04-10T11:45:31.389Z,3.40
2018-04-10T11:47:59.231Z,2.80
2018-04-10T11:50:26.714Z,2.93
2018-04-10T11:52:54.172Z,2.83
2018-04-10T11:55:21.612Z,2.80
2018-04-10T11:57:49.076Z,3.07
2018-04-10T12:00:16.512Z,3.33
2018-04-10T12:02:44.725Z,3.40
2018-04-10T12:05:12.201Z,3.07
2018-04-10T12:07:40.791Z,3.17
2018-04-10T12:10:08.246Z,3.20
2018-04-10T12:12:35.697Z,2.80
2018-04-10T12:15:03.945Z,3.33
2018-04-10T12:17:31.421Z,3.07
2018-04-10T12:19:58.888Z,3.50
2018-04-10T12:22:26.351Z,2.90
2018-04-10T12:24:53.799Z,2.73
2018-04-10T12:27:21.257Z,3.07
2018-04-10T12:29:49.470Z,3.17
2018-04-10T12:32:17.302Z,3.40
2018-04-10T12:34:45.165Z,3.03
2018-04-10T12:37:13.374Z,3.00
2018-04-10T12:39:40.866Z,3.60
2018-04-10T12:42:08.350Z,3.40
2018-04-10T12:44:35.843Z,3.73
2018-04-10T12:47:04.297Z,2.90
2018-04-10T12:49:31.758Z,3.00
2018-04-10T12:51:59.205Z,2.80
2018-04-10T12:54:26.681Z,3.00
2018-04-10T12:56:54.134Z,2.70
2018-04-10T12:59:21.609Z,2.87
2018-04-10T13:01:49.858Z,3.10
2018-04-10T13:04:17.303Z,3.60
2018-04-10T13:06:44.771Z,3.40
2018-04-10T13:09:12.227Z,3.03
2018-04-10T13:11:39.702Z,3.10
2018-04-10T13:14:07.545Z,3.50
2018-04-10T13:16:34.995Z,3.17
2018-04-10T13:19:03.217Z,2.70
2018-04-10T13:21:30.671Z,2.30
2018-04-10T13:23:58.142Z,2.60
2018-04-10T13:26:25.599Z,1.87
2018-04-10T13:28:53.055Z,2.03
2018-04-10T13:31:21.269Z,1.27
2018-04-10T13:33:49.385Z,1.87
2018-04-10T13:36:17.229Z,1.20
2018-04-10T13:38:44.708Z,1.70
2018-04-10T13:41:12.157Z,1.90
2018-04-10T13:43:39.694Z,2.00
2018-04-10T13:46:07.161Z,2.83
2018-04-10T13:48:35.394Z,2.00
2018-04-10T15:13:00.717Z,3.33
2018-04-10T15:15:28.922Z,2.87
2018-04-10T15:17:57.134Z,2.50
2018-04-10T15:20:25.000Z,2.67
2018-04-10T15:22:52.454Z,2.40
2018-04-10T15:25:19.915Z,2.90
2018-04-10T15:27:47.372Z,2.97
2018-04-10T15:30:14.837Z,2.47
2018-04-10T15:32:42.709Z,2.43
2018-04-10T15:35:10.610Z,3.17
2018-04-10T15:37:38.741Z,2.60
2018-04-10T15:40:06.940Z,2.53
2018-04-10T15:42:34.415Z,1.97
2018-04-10T15:45:02.619Z,2.40
2018-04-10T15:47:32.239Z,2.83
2018-04-10T15:49:59.713Z,2.10
2018-04-10T15:52:27.170Z,2.33
2018-04-10T15:54:55.398Z,2.83
2018-04-10T15:57:22.878Z,2.30
2018-04-10T15:59:50.333Z,2.20
2018-04-10T16:02:17.790Z,2.93
2018-04-10T16:04:45.250Z,2.10
2018-04-10T16:07:12.746Z,2.60
2018-04-10T16:09:40.264Z,2.33
2018-04-10T16:12:08.478Z,3.00
2018-04-10T16:14:35.934Z,2.47
2018-04-10T16:17:03.393Z,2.27
2018-04-10T16:19:31.258Z,2.40
2018-04-10T16:21:58.717Z,2.07
2018-04-10T16:24:26.190Z,2.70
2018-04-10T16:26:53.644Z,2.13
2018-04-10T16:29:21.089Z,2.77
2018-04-10T16:31:48.552Z,2.40
2018-04-10T16:34:16.000Z,2.70
2018-04-10T16:36:43.495Z,2.40
2018-04-10T16:39:10.971Z,2.00
2018-04-10T16:41:39.202Z,2.60
2018-04-10T16:44:07.772Z,3.20
2018-04-10T16:46:35.215Z,3.87
2018-04-10T16:49:03.076Z,2.93
2018-04-10T16:51:30.517Z,2.67
2018-04-10T16:53:57.969Z,2.73
2018-04-10T16:56:25.421Z,2.43
2018-04-10T16:58:52.876Z,3.03
2018-04-10T17:01:21.091Z,3.40
2018-04-10T17:03:48.550Z,2.80
2018-04-10T17:06:16.075Z,3.07
2018-04-10T17:08:43.914Z,3.40
2018-04-10T17:11:12.150Z,2.73
2018-04-10T17:13:40.369Z,2.80
2018-04-10T17:16:08.590Z,3.10
2018-04-10T17:18:36.098Z,2.70
2018-04-10T17:21:04.332Z,3.50
2018-04-10T17:23:32.165Z,3.60
2018-04-10T17:26:00.409Z,2.80
2018-04-10T17:28:27.877Z,3.07
2018-04-10T17:30:55.333Z,2.87
2018-04-10T17:33:22.777Z,2.70
2018-04-10T17:35:50.204Z,2.60
2018-04-10T17:38:18.420Z,2.80
2018-04-10T17:40:45.893Z,2.70
2018-04-10T17:43:13.352Z,3.20
2018-04-10T17:45:41.578Z,2.70
2018-04-10T17:48:09.076Z,3.03
2018-04-10T17:50:36.525Z,3.60
2018-04-10T17:53:03.992Z,3.77
2018-04-10T17:55:31.457Z,2.93
2018-04-10T17:57:58.911Z,3.03
2018-04-10T18:00:26.792Z,2.63
2018-04-10T18:02:55.049Z,3.33
2018-04-10T18:05:22.506Z,3.00
2018-04-10T18:07:51.527Z,3.00
2018-04-10T18:10:19.371Z,2.50
2018-04-10T18:12:46.805Z,3.63
2018-04-10T18:15:14.270Z,2.90
2018-04-10T18:17:42.161Z,2.80
2018-04-10T18:20:09.634Z,3.10
2018-04-10T18:22:37.097Z,2.53
2018-04-10T18:25:04.537Z,3.53
2018-04-10T18:27:31.983Z,2.70
2018-04-10T18:29:59.437Z,3.10
2018-04-10T18:32:27.697Z,2.40
2018-04-10T18:34:55.537Z,3.00
2018-04-10T18:37:22.988Z,2.97
2018-04-10T18:39:51.271Z,3.10
2018-04-10T18:42:18.713Z,3.57
2018-04-10T18:44:46.166Z,2.90
2018-04-10T18:47:14.010Z,3.43
2018-04-10T18:49:41.449Z,3.70
2018-04-10T18:52:08.901Z,3.87
2018-04-10T18:54:37.144Z,3.67
2018-04-10T18:57:05.368Z,5.20
2018-04-10T18:59:33.229Z,4.50
2018-04-10T19:02:02.182Z,5.20
2018-04-10T19:04:29.673Z,4.70
2018-04-10T19:06:57.126Z,5.23
2018-04-10T19:09:24.983Z,6.00
2018-04-10T19:11:53.291Z,6.03
2018-04-10T19:14:20.801Z,6.67
2018-04-10T19:16:48.798Z,8.93
2018-04-10T19:19:16.289Z,8.73
2018-04-10T19:21:43.813Z,8.60
2018-04-10T19:24:11.274Z,9.60
2018-04-10T19:26:38.733Z,9.03
2018-04-10T19:29:06.213Z,11.90
2018-04-10T19:31:33.660Z,14.90
2018-04-10T19:34:01.129Z,13.33
2018-04-10T19:36:29.353Z,14.00
2018-04-10T19:38:56.811Z,13.23
2018-04-10T19:41:25.695Z,12.33
2018-04-10T19:43:53.240Z,13.30
2018-04-10T19:46:20.690Z,14.80
2018-04-10T19:48:48.172Z,14.37
2018-04-10T19:51:16.024Z,19.40
2018-04-10T19:53:44.258Z,13.33
2018-04-10T19:56:11.799Z,12.53
2018-04-10T19:58:39.274Z,13.50
2018-04-10T20:01:06.792Z,16.03
2018-04-10T20:03:34.319Z,15.80
2018-04-10T20:06:01.781Z,14.30
2018-04-10T20:08:29.285Z,15.77
2018-04-10T20:10:57.609Z,18.60
2018-04-10T20:13:25.859Z,20.60
2018-04-10T20:15:53.341Z,21.73
2018-04-10T20:18:20.845Z,21.07
2018-04-10T20:20:48.435Z,24.60
2018-04-10T20:23:15.869Z,23.17
2018-04-10T20:25:44.667Z,21.93
2018-04-10T20:28:12.145Z,23.20
2018-04-10T20:30:39.624Z,20.83
2018-04-10T20:33:07.077Z,23.43
2018-04-10T20:35:35.373Z,21.27
2018-04-10T20:38:03.634Z,24.83
2018-04-10T20:40:31.081Z,24.30
2018-04-10T20:42:58.537Z,25.20
2018-04-10T20:45:26.001Z,19.33
2018-04-10T20:47:53.450Z,15.27
2018-04-10T20:50:20.920Z,15.00
2018-04-10T20:52:48.376Z,10.90
2018-04-10T20:55:15.885Z,9.53
2018-04-10T20:57:43.377Z,10.67
2018-04-10T21:00:10.880Z,8.30
2018-04-10T21:02:38.350Z,8.20
2018-04-10T21:05:06.842Z,9.03
2018-04-10T21:07:34.694Z,9.33
2018-04-10T21:10:02.130Z,7.93
2018-04-10T21:12:29.582Z,6.93
2018-04-10T21:14:57.028Z,7.60
2018-04-10T21:17:25.230Z,9.97
2018-04-10T21:19:52.730Z,9.90
2018-04-10T21:22:20.574Z,10.07
2018-04-10T21:24:48.047Z,12.97
2018-04-10T21:27:16.275Z,13.10
2018-04-10T21:29:43.763Z,14.03
2018-04-10T21:32:11.613Z,13.10
2018-04-10T21:34:39.065Z,14.20
2018-04-10T21:37:06.560Z,12.50
2018-04-10T21:39:34.013Z,10.87
2018-04-10T21:42:01.499Z,6.73
2018-04-10T21:44:28.937Z,4.87
2018-04-10T21:46:56.382Z,4.90
2018-04-10T21:49:23.843Z,3.50
2018-04-10T21:51:51.400Z,4.77
2018-04-10T21:54:18.840Z,3.10
2018-04-10T21:56:46.293Z,4.10
2018-04-10T21:59:14.129Z,4.17
2018-04-10T22:01:41.575Z,3.53
2018-04-10T22:04:09.814Z,3.50
2018-04-10T22:06:38.005Z,3.70
2018-04-10T22:09:05.443Z,4.50
2018-04-10T22:11:33.683Z,3.90
2018-04-10T22:14:01.941Z,3.73
2018-04-10T22:16:55.632Z,3.07
2018-04-10T22:19:26.274Z,3.30
2018-04-10T22:21:58.597Z,2.40
2018-04-10T22:24:26.838Z,3.17
2018-04-10T22:26:54.290Z,3.37
2018-04-10T22:29:22.993Z,3.47
2018-04-10T22:31:50.921Z,4.67
2018-04-10T22:34:19.163Z,4.00
2018-04-10T22:36:46.630Z,4.17
2018-04-10T22:39:14.108Z,4.50
2018-04-10T22:41:41.573Z,4.27
2018-04-10T22:44:09.785Z,4.03
2018-04-10T22:46:38.733Z,5.27
2018-04-10T22:49:06.188Z,4.60
2018-04-10T22:51:33.685Z,5.03
2018-04-10T22:54:01.134Z,5.13
2018-04-10T22:56:28.580Z,5.40
2018-04-10T22:58:57.384Z,5.20
2018-04-10T23:01:25.586Z,5.80
2018-04-10T23:18:06.934Z,6.67
2018-04-10T23:20:34.398Z,5.83
2018-04-10T23:23:01.845Z,6.60
2018-04-10T23:25:29.286Z,6.93
2018-04-10T23:27:56.733Z,6.83
2018-04-10T23:30:24.570Z,6.30
2018-04-10T23:32:52.455Z,6.10
2018-04-10T23:35:20.306Z,6.33
2018-04-10T23:37:47.775Z,7.37
2018-04-10T23:40:15.270Z,6.77
2018-04-10T23:42:43.466Z,6.67
2018-04-10T23:45:10.936Z,7.23
2018-04-10T23:47:38.386Z,6.70
2018-04-10T23:50:06.590Z,8.00
2018-04-10T23:52:34.436Z,6.60
2018-04-10T23:55:01.887Z,7.00
2018-04-10T23:57:29.335Z,6.83
2018-04-10T23:59:56.786Z,7.97
